createdAt,value
2022-09-04T08:35:54.313Z,99.90
2022-09-04T08:38:45.792Z,99.90
2022-09-04T08:41:36.639Z,99.90
2022-09-04T08:44:41.127Z,99.90
2022-09-04T08:47:53.478Z,99.90
2022-09-04T08:50:52.475Z,99.90
2022-09-04T08:53:48.084Z,99.90
2022-09-04T08:56:47.243Z,99.90
2022-09-04T08:59:45.784Z,99.90
2022-09-04T09:02:34.520Z,99.90
2022-09-04T09:05:28.040Z,99.90
2022-09-04T09:08:15.716Z,99.90
2022-09-04T09:11:29.967Z,99.90
2022-09-04T09:14:12.164Z,99.90
2022-09-04T09:17:17.040Z,99.90
2022-09-04T09:19:59.099Z,99.90
2022-09-04T09:25:24.523Z,99.90
2022-09-04T09:28:23.559Z,99.90
2022-09-04T09:31:28.548Z,99.90
2022-09-04T09:37:02.281Z,99.90
2022-09-04T09:40:09.455Z,99.90
2022-09-04T09:43:09.476Z,99.90
2022-09-04T09:45:57.436Z,99.90
2022-09-04T09:48:57.737Z,99.90
2022-09-04T09:51:42.801Z,99.90
2022-09-04T09:54:50.597Z,99.90
2022-09-04T09:57:38.961Z,99.90
2022-09-04T10:00:08.599Z,99.90
2022-09-04T10:05:35.758Z,99.90
2022-09-04T10:08:35.421Z,99.90
2022-09-04T10:14:03.261Z,99.90
2022-09-04T10:16:48.484Z,99.20
2022-09-04T10:19:39.213Z,99.20
2022-09-04T10:22:33.283Z,99.90
2022-09-04T10:25:31.747Z,99.90
2022-09-04T10:28:28.230Z,99.90
2022-09-04T10:34:13.167Z,96.60
2022-09-04T10:37:04.035Z,96.20
2022-09-04T10:40:10.434Z,96.40
2022-09-04T10:42:59.167Z,96.10
2022-09-04T10:45:53.356Z,95.50
2022-09-04T10:48:38.325Z,95.40
2022-09-04T10:51:25.359Z,95.40
2022-09-04T10:54:30.822Z,95.30
2022-09-04T10:57:29.724Z,94.70
2022-09-04T11:00:13.936Z,94.00
2022-09-04T11:03:12.967Z,92.90
2022-09-04T11:06:00.119Z,93.30
2022-09-04T11:08:36.204Z,92.80
2022-09-04T11:11:31.488Z,91.80
2022-09-04T11:14:28.974Z,92.00
2022-09-04T11:17:19.692Z,91.00
2022-09-04T11:20:16.151Z,91.10
2022-09-04T11:23:22.266Z,90.60
2022-09-04T11:26:05.960Z,90.30
2022-09-04T11:29:12.327Z,90.00
2022-09-04T11:32:12.045Z,99.60
2022-09-04T11:34:50.531Z,97.70
2022-09-04T11:37:43.473Z,96.60
2022-09-04T11:40:49.851Z,96.70
2022-09-04T11:43:37.436Z,96.70
2022-09-04T11:46:04.151Z,96.10
2022-09-04T11:49:09.209Z,96.00
2022-09-04T11:52:03.890Z,95.80
2022-09-04T11:54:44.959Z,92.60
2022-09-04T11:57:31.426Z,93.10
2022-09-04T12:00:11.466Z,92.80
2022-09-04T12:03:06.967Z,92.00
2022-09-04T12:05:46.621Z,92.00
2022-09-04T12:08:46.924Z,94.00
2022-09-04T12:11:41.513Z,90.10
2022-09-04T12:14:19.748Z,90.30
2022-09-04T12:17:10.156Z,85.10
2022-09-04T12:19:58.804Z,85.60
2022-09-04T12:25:32.995Z,84.60
2022-09-04T12:28:09.619Z,84.40
2022-09-04T12:31:02.104Z,84.50
2022-09-04T12:34:07.314Z,82.20
2022-09-04T12:36:58.891Z,80.90
2022-09-04T12:42:16.624Z,80.00
2022-09-04T12:44:52.359Z,80.90
2022-09-04T12:47:41.585Z,81.40
2022-09-04T12:50:18.000Z,80.80
2022-09-04T12:52:52.366Z,81.60
2022-09-04T12:55:22.902Z,80.40
2022-09-04T12:58:11.892Z,79.60
2022-09-04T13:00:55.884Z,78.30
2022-09-04T13:03:38.502Z,78.10
2022-09-04T13:06:53.388Z,78.50
2022-09-04T13:09:34.086Z,79.30
2022-09-04T13:12:41.692Z,78.90
2022-09-04T13:15:29.220Z,79.40
2022-09-04T13:18:22.129Z,79.50
2022-09-04T13:21:05.304Z,79.00
2022-09-04T13:24:07.612Z,79.00
2022-09-04T13:27:00.528Z,79.50
2022-09-04T13:30:03.498Z,78.20
2022-09-04T13:32:44.380Z,77.80
2022-09-04T13:35:41.401Z,77.40
2022-09-04T13:38:25.164Z,78.60
2022-09-04T13:41:12.448Z,78.70
2022-09-04T13:44:10.141Z,79.50
2022-09-04T13:46:43.498Z,79.30
2022-09-04T13:49:17.211Z,78.80
2022-09-04T13:51:52.805Z,80.80
2022-09-04T13:54:34.138Z,79.90
2022-09-04T13:57:27.813Z,79.30
2022-09-04T14:00:02.805Z,79.70
2022-09-04T14:02:31.757Z,79.20
2022-09-04T14:05:08.147Z,79.60
2022-09-04T14:07:44.121Z,80.00
2022-09-04T14:10:20.269Z,81.10
2022-09-04T14:13:11.675Z,80.80
2022-09-04T14:16:03.673Z,80.80
2022-09-04T14:18:36.232Z,81.30
2022-09-04T14:21:20.624Z,80.40
2022-09-04T14:24:10.552Z,80.60
2022-09-04T14:26:52.585Z,80.70
2022-09-04T14:29:28.044Z,81.50
2022-09-04T14:32:13.507Z,82.00
2022-09-04T14:34:52.556Z,81.80
2022-09-04T14:37:59.219Z,82.80
2022-09-04T14:40:45.810Z,82.80
2022-09-04T14:43:37.828Z,83.30
2022-09-04T14:46:10.090Z,82.40
2022-09-04T14:48:42.198Z,83.70
2022-09-04T14:51:15.054Z,83.30
2022-09-04T14:53:50.175Z,84.20
2022-09-04T14:56:31.612Z,84.80
2022-09-04T14:59:07.287Z,84.90
2022-09-04T15:01:45.894Z,85.60
2022-09-04T15:04:20.308Z,85.40
2022-09-04T15:07:10.713Z,85.10
2022-09-04T15:09:43.254Z,85.80
2022-09-04T15:12:27.429Z,87.10
2022-09-04T15:15:18.367Z,85.30
2022-09-04T15:18:21.908Z,84.40
2022-09-04T15:21:12.260Z,83.70
2022-09-04T15:23:54.378Z,84.30
2022-09-04T15:26:28.204Z,85.90
2022-09-04T15:29:08.528Z,85.80
2022-09-04T15:34:07.726Z,84.50
2022-09-04T15:39:06.735Z,92.10
2022-09-04T15:41:39.621Z,85.60
2022-09-04T15:44:30.111Z,86.50
2022-09-04T15:47:06.029Z,85.60
2022-09-04T15:49:48.421Z,85.40
2022-09-04T15:52:42.955Z,85.90
2022-09-04T15:55:32.532Z,85.20
2022-09-04T15:58:14.694Z,85.40
2022-09-04T16:01:08.076Z,87.00
2022-09-04T16:03:53.545Z,87.40
2022-09-04T16:09:27.899Z,86.40
2022-09-04T16:12:01.979Z,87.50
2022-09-04T16:14:50.840Z,87.20
2022-09-04T16:20:06.343Z,87.20
2022-09-04T16:22:52.930Z,88.80
2022-09-04T16:25:28.997Z,89.30
2022-09-04T16:28:05.959Z,90.00
2022-09-04T16:30:39.076Z,89.60
2022-09-04T16:33:20.491Z,99.30
2022-09-04T16:36:01.846Z,90.20
2022-09-04T16:38:33.924Z,89.30
2022-09-04T16:41:19.581Z,90.00
2022-09-04T16:44:06.139Z,90.40
2022-09-04T16:46:37.301Z,95.10
2022-09-04T16:49:19.716Z,99.80
2022-09-04T16:51:59.671Z,90.80
2022-09-04T16:54:48.951Z,90.70
2022-09-04T16:57:18.486Z,90.80
2022-09-04T16:59:52.996Z,90.70
2022-09-04T17:02:48.733Z,91.10
2022-09-04T17:05:28.749Z,91.80
2022-09-04T17:08:04.620Z,91.70
2022-09-04T17:10:51.661Z,91.80
2022-09-04T17:13:48.212Z,95.40
2022-09-04T17:16:22.105Z,91.60
2022-09-04T17:18:53.124Z,92.00
2022-09-04T17:28:57.815Z,92.60
2022-09-04T17:29:16.667Z,93.00
2022-09-04T17:30:43.785Z,93.20
2022-09-04T17:39:01.159Z,93.50
2022-09-04T17:40:36.303Z,94.00
2022-09-04T17:40:40.357Z,93.80
2022-09-04T17:42:29.436Z,94.30
2022-09-04T17:50:19.280Z,94.80
2022-09-04T17:53:02.420Z,95.30
2022-09-04T17:55:38.948Z,95.50
2022-09-04T18:01:15.411Z,95.60
2022-09-04T18:04:20.852Z,96.20
2022-09-04T18:06:59.447Z,96.50
2022-09-04T18:12:16.257Z,96.60
2022-09-04T18:18:05.419Z,97.10
2022-09-04T18:23:19.336Z,97.60
2022-09-04T18:25:59.275Z,99.90
2022-09-04T18:37:08.539Z,98.50
2022-09-04T18:37:25.132Z,99.00
2022-09-04T18:37:44.280Z,99.60
2022-09-04T18:50:38.908Z,99.90
2022-09-04T18:50:53.075Z,99.90
2022-09-04T18:59:42.267Z,99.90
2022-09-04T19:02:29.594Z,99.90
2022-09-04T19:05:07.115Z,99.90
2022-09-04T19:07:41.677Z,99.90
2022-09-04T19:10:32.488Z,99.90
2022-09-04T19:13:02.187Z,99.90
2022-09-04T19:15:58.311Z,99.90
2022-09-04T19:18:52.808Z,99.90
2022-09-04T19:21:22.240Z,99.90
2022-09-04T19:24:24.848Z,99.90
2022-09-04T19:32:10.052Z,99.90
2022-09-04T19:34:55.196Z,99.90
2022-09-04T19:44:10.173Z,99.90
2022-09-04T19:45:54.667Z,99.90
2022-09-04T19:46:12.323Z,99.90
2022-09-04T19:47:37.211Z,99.90
2022-09-04T19:53:18.546Z,99.90
2022-09-04T19:53:38.829Z,99.90
2022-09-04T19:58:53.168Z,99.90
2022-09-04T20:01:38.919Z,99.90
2022-09-04T20:09:37.277Z,99.90
2022-09-04T20:12:18.013Z,99.90
2022-09-04T20:18:04.144Z,99.90
2022-09-04T20:21:06.096Z,99.90
2022-09-04T20:23:46.983Z,99.90
2022-09-04T20:26:28.704Z,99.90
2022-09-04T20:31:50.267Z,99.90
2022-09-04T20:37:20.022Z,99.90
2022-09-04T20:40:16.576Z,99.90
2022-09-04T20:43:07.543Z,99.90
2022-09-04T20:46:24.639Z,99.90
2022-09-04T20:52:45.354Z,99.90
2022-09-04T20:55:00.469Z,99.90
2022-09-04T21:02:25.156Z,99.90
2022-09-04T21:03:27.013Z,99.90
2022-09-04T21:03:43.957Z,99.90
2022-09-04T21:06:27.812Z,99.90
2022-09-04T21:09:16.766Z,99.90
2022-09-04T21:11:48.749Z,99.90
2022-09-04T21:14:45.616Z,99.90
2022-09-04T21:17:34.117Z,99.90
2022-09-04T21:20:35.488Z,99.90
2022-09-04T21:24:01.962Z,99.90
2022-09-04T21:27:00.787Z,99.90
2022-09-04T21:29:48.585Z,99.90
2022-09-04T21:32:46.143Z,99.90
2022-09-04T21:35:21.567Z,99.90
2022-09-04T21:38:08.709Z,99.90
2022-09-04T21:41:04.264Z,99.90
2022-09-04T21:44:02.499Z,99.90
2022-09-04T21:46:38.325Z,99.90
2022-09-04T21:49:39.565Z,99.90
2022-09-04T21:52:26.601Z,99.90
2022-09-04T21:56:52.112Z,99.90
2022-09-04T22:02:44.603Z,99.90
2022-09-04T22:04:28.747Z,99.90
2022-09-04T22:13:42.342Z,99.90
2022-09-04T22:30:14.084Z,99.90
2022-09-04T22:33:19.653Z,99.90
2022-09-04T22:36:13.386Z,99.90
2022-09-04T22:39:02.487Z,99.90
2022-09-04T22:41:51.468Z,99.90
2022-09-04T22:44:30.262Z,99.90
2022-09-04T22:47:32.832Z,99.90
2022-09-04T22:50:49.725Z,99.90
2022-09-04T22:53:49.760Z,99.90
2022-09-04T22:56:32.700Z,99.90
2022-09-04T22:59:27.612Z,99.90
2022-09-04T23:02:13.438Z,99.90
2022-09-04T23:04:53.140Z,99.90
2022-09-04T23:13:47.607Z,99.90
2022-09-04T23:13:49.424Z,99.90
2022-09-04T23:14:22.282Z,99.90
2022-09-04T23:17:11.592Z,99.90
2022-09-04T23:26:37.702Z,99.90
2022-09-04T23:26:42.065Z,99.90
2022-09-04T23:27:13.137Z,99.90
2022-09-04T23:30:05.164Z,99.90
2022-09-04T23:32:53.874Z,99.90
2022-09-04T23:35:33.387Z,99.90
2022-09-04T23:38:38.288Z,99.90
2022-09-04T23:41:12.238Z,99.90
2022-09-04T23:44:27.749Z,99.90
2022-09-04T23:46:54.360Z,99.90
2022-09-04T23:49:26.676Z,99.90
2022-09-04T23:52:26.551Z,99.90
2022-09-04T23:55:21.094Z,99.90
2022-09-04T23:58:32.488Z,99.90
